createdAt,value
2019-05-06T03:06:37.151Z,23.1
2019-05-06T03:07:27.475Z,23
2019-05-06T03:08:17.538Z,23.1
2019-05-06T03:09:07.585Z,23.1
2019-05-06T03:09:57.948Z,23.1
2019-05-06T03:10:47.995Z,23.1
2019-05-06T03:11:37.801Z,23.1
2019-05-06T03:12:28.101Z,23
2019-05-06T03:13:18.164Z,23.1
2019-05-06T03:14:08.237Z,23.1
2019-05-06T03:14:58.304Z,23.1
2019-05-06T03:15:48.388Z,23
2019-05-06T03:16:38.448Z,23.1
2019-05-06T03:17:28.478Z,23.1
2019-05-06T03:18:18.558Z,23
2019-05-06T03:19:08.612Z,23
2019-05-06T03:19:58.676Z,23
2019-05-06T03:20:48.832Z,23
2019-05-06T03:21:38.812Z,23
2019-05-06T03:22:29.033Z,23
2019-05-06T03:23:18.924Z,23
2019-05-06T03:24:09.004Z,23
2019-05-06T03:24:59.029Z,23
2019-05-06T03:25:48.866Z,23
2019-05-06T03:26:38.939Z,23
2019-05-06T03:27:29.221Z,23
2019-05-06T03:28:19.008Z,23
2019-05-06T03:29:09.401Z,23
2019-05-06T03:29:59.150Z,23
2019-05-06T03:30:49.505Z,23
2019-05-06T03:31:39.543Z,23
2019-05-06T03:33:18.636Z,23
2019-05-06T03:37:53.940Z,23
2019-05-06T03:38:44.101Z,23
2019-05-06T03:39:34.286Z,23
2019-05-06T03:40:24.153Z,23
2019-05-06T03:41:14.801Z,23
2019-05-06T03:42:04.480Z,23
2019-05-06T03:42:54.814Z,23
2019-05-06T03:43:44.617Z,23
2019-05-06T03:44:34.158Z,23
2019-05-06T03:45:24.663Z,23
2019-05-06T03:46:15.137Z,23
2019-05-06T03:47:06.555Z,23
2019-05-06T03:47:55.214Z,23
2019-05-06T03:48:45.170Z,23
2019-05-06T03:49:34.959Z,22.9
2019-05-06T03:50:24.905Z,23
2019-05-06T03:51:14.351Z,23
2019-05-06T03:52:03.692Z,23
2019-05-06T03:52:56.998Z,23
2019-05-06T03:53:44.603Z,22.9
2019-05-06T03:54:35.426Z,23
2019-05-06T03:55:24.497Z,23
2019-05-06T03:56:23.458Z,23
2019-05-06T03:57:04.284Z,23
2019-05-06T03:57:54.980Z,23
2019-05-06T03:58:44.681Z,22.9
2019-05-06T03:59:34.708Z,22.9
2019-05-06T04:00:24.837Z,22.9
2019-05-06T04:01:14.322Z,23
2019-05-06T04:02:05.837Z,22.9
2019-05-06T04:02:54.480Z,23
2019-05-06T04:03:57.556Z,23
2019-05-06T04:04:34.291Z,22.9
2019-05-06T04:05:24.931Z,22.9
2019-05-06T04:06:14.661Z,22.9
2019-05-06T04:07:04.514Z,22.9
2019-05-06T04:07:54.198Z,22.9
2019-05-06T04:08:44.992Z,22.9
2019-05-06T04:09:37.582Z,22.9
2019-05-06T04:10:23.841Z,22.9
2019-05-06T04:11:14.503Z,22.9
2019-05-06T04:12:04.639Z,22.9
2019-05-06T04:12:54.697Z,22.9
2019-05-06T04:13:44.814Z,22.9
2019-05-06T04:14:35.077Z,22.9
2019-05-06T04:15:27.342Z,22.9
2019-05-06T04:16:14.657Z,22.9
2019-05-06T04:17:04.488Z,22.9
2019-05-06T04:17:54.935Z,22.9
2019-05-06T04:18:44.885Z,22.9
2019-05-06T04:19:34.532Z,22.9
2019-05-06T04:20:24.783Z,22.9
2019-05-06T04:21:17.775Z,22.9
2019-05-06T04:22:04.888Z,22.9
2019-05-06T04:22:54.650Z,22.9
2019-05-06T04:23:44.863Z,22.9
2019-05-06T04:24:34.636Z,22.9
2019-05-06T04:25:24.528Z,22.9
2019-05-06T04:26:14.867Z,22.9
2019-05-06T04:27:04.653Z,22.9
2019-05-06T04:27:54.862Z,22.9
2019-05-06T04:28:45.100Z,22.9
2019-05-06T04:29:36.430Z,22.9
2019-05-06T04:30:25.637Z,22.9
2019-05-06T04:31:15.246Z,22.9
2019-05-06T04:32:05.053Z,22.9
2019-05-06T04:32:55.377Z,22.9
2019-05-06T04:34:18.933Z,22.9
2019-05-06T04:35:25.580Z,22.9
2019-05-06T04:36:15.616Z,22.9
2019-05-06T04:37:05.406Z,22.9
2019-05-06T04:37:55.473Z,22.9
2019-05-06T04:38:45.819Z,22.9
2019-05-06T04:39:35.866Z,22.9
2019-05-06T04:40:25.660Z,22.9
2019-05-06T04:41:15.985Z,22.9
2019-05-06T04:42:10.626Z,22.9
2019-05-06T04:42:55.873Z,22.9
2019-05-06T04:43:46.170Z,22.9
2019-05-06T04:44:36.270Z,22.9
2019-05-06T04:45:26.324Z,22.9
2019-05-06T04:46:17.773Z,22.9
2019-05-06T04:47:06.645Z,22.9
2019-05-06T04:47:56.271Z,22.9
2019-05-06T04:48:46.530Z,22.9
2019-05-06T04:49:36.380Z,22.9
2019-05-06T04:50:26.657Z,22.9
2019-05-06T04:51:16.452Z,22.9
2019-05-06T04:52:06.526Z,22.9
2019-05-06T04:52:56.862Z,22.9
2019-05-06T04:53:46.694Z,22.9
2019-05-06T04:54:36.701Z,22.9
2019-05-06T04:55:27.060Z,22.9
2019-05-06T04:56:17.107Z,22.9
2019-05-06T04:57:06.924Z,22.9
2019-05-06T04:57:56.936Z,22.9
2019-05-06T04:58:47.269Z,22.9
2019-05-06T04:59:37.338Z,22.9
2019-05-06T05:00:27.131Z,22.9
2019-05-06T05:01:17.467Z,22.9
2019-05-06T05:02:07.540Z,22.9
2019-05-06T05:02:57.604Z,22.9
2019-05-06T05:03:47.659Z,22.9
2019-05-06T05:04:37.953Z,22.9
2019-05-06T05:05:27.833Z,22.9
2019-05-06T05:06:17.881Z,22.9
2019-05-06T05:07:07.909Z,22.9
2019-05-06T05:07:57.964Z,22.9
2019-05-06T05:08:47.756Z,22.9
2019-05-06T05:09:38.126Z,22.9
2019-05-06T05:10:27.882Z,22.9
2019-05-06T05:11:18.219Z,22.9
2019-05-06T05:12:08.011Z,22.9
2019-05-06T05:12:58.079Z,22.9
2019-05-06T05:13:48.411Z,22.9
2019-05-06T05:14:38.472Z,22.9
2019-05-06T05:15:28.279Z,22.9
2019-05-06T05:16:18.582Z,22.9
2019-05-06T05:17:08.640Z,22.9
2019-05-06T05:17:58.715Z,22.9
2019-05-06T05:18:48.787Z,22.9
2019-05-06T05:19:38.559Z,22.9
2019-05-06T05:20:46.995Z,22.9
2019-05-06T05:21:18.947Z,22.9
2019-05-06T05:22:08.740Z,22.9
2019-05-06T05:22:59.068Z,22.9
2019-05-06T05:23:49.133Z,22.9
2019-05-06T05:24:38.922Z,22.9
2019-05-06T05:25:29.262Z,22.9
2019-05-06T05:26:19.332Z,22.9
2019-05-06T05:27:09.401Z,22.9
2019-05-06T05:27:59.165Z,22.9
2019-05-06T05:28:49.504Z,22.9
2019-05-06T05:29:39.562Z,22.9
2019-05-06T05:30:29.352Z,22.9
2019-05-06T05:31:19.697Z,22.9
2019-05-06T05:32:09.754Z,22.9
2019-05-06T05:32:59.827Z,22.9
2019-05-06T05:33:49.876Z,22.9
2019-05-06T05:34:44.020Z,22.9
2019-05-06T05:35:31.981Z,22.9
2019-05-06T05:36:20.057Z,22.9
2019-05-06T05:37:11.958Z,22.9
2019-05-06T05:38:00.181Z,23
2019-05-06T05:38:52.729Z,23
2019-05-06T05:39:42.445Z,23
2019-05-06T05:40:32.591Z,23
2019-05-06T05:41:19.904Z,23
2019-05-06T05:42:12.746Z,23
2019-05-06T05:43:02.650Z,23.1
2019-05-06T05:43:52.561Z,23.1
2019-05-06T05:44:40.454Z,23.1
2019-05-06T05:45:32.574Z,23.1
2019-05-06T05:46:22.553Z,23.1
2019-05-06T05:47:12.571Z,23.1
2019-05-06T05:48:00.378Z,23.1
2019-05-06T05:48:52.783Z,23.1
2019-05-06T05:49:43.013Z,23.1
2019-05-06T05:50:33.440Z,23.1
2019-05-06T05:51:23.178Z,23.1
2019-05-06T05:52:13.593Z,23.1
2019-05-06T05:53:03.148Z,23.1
2019-05-06T05:53:53.422Z,23.1
2019-05-06T05:54:43.369Z,23.1
2019-05-06T05:55:33.994Z,23
2019-05-06T05:56:24.423Z,23.1
2019-05-06T05:57:12.923Z,23.1
2019-05-06T05:58:03.880Z,23
2019-05-06T05:58:54.531Z,23
2019-05-06T05:59:43.198Z,23.1
2019-05-06T06:00:33.200Z,23.1
2019-05-06T06:01:24.022Z,23.1
2019-05-06T06:02:13.973Z,23.1
2019-05-06T06:04:57.136Z,23.1
2019-05-06T06:05:27.615Z,23.1
2019-05-06T06:06:17.687Z,23
2019-05-06T06:07:07.750Z,23.1
2019-05-06T06:07:57.543Z,23.1
2019-05-06T06:08:47.883Z,23
2019-05-06T06:09:37.917Z,23.1
2019-05-06T06:10:27.972Z,23.1
2019-05-06T06:11:18.042Z,23.1
2019-05-06T06:12:08.122Z,23
2019-05-06T06:12:58.190Z,23
2019-05-06T06:13:48.230Z,23
2019-05-06T06:14:38.290Z,23.1
2019-05-06T06:15:28.368Z,23
2019-05-06T06:16:18.145Z,23
2019-05-06T06:17:08.502Z,23
2019-05-06T06:17:58.274Z,23
2019-05-06T06:18:48.645Z,23
2019-05-06T06:19:38.665Z,23.1
2019-05-06T06:20:28.457Z,23
2019-05-06T06:21:28.794Z,23
2019-05-06T06:22:08.852Z,23
2019-05-06T06:22:58.916Z,23
2019-05-06T06:23:48.974Z,23
2019-05-06T06:24:39.026Z,23
2019-05-06T06:25:29.148Z,23
2019-05-06T06:26:19.159Z,23
2019-05-06T06:27:08.964Z,23
2019-05-06T06:27:59.320Z,23
2019-05-06T06:28:49.346Z,23
2019-05-06T06:29:39.418Z,23
2019-05-06T06:30:29.243Z,23
2019-05-06T06:31:19.542Z,23
2019-05-06T06:32:09.586Z,23
2019-05-06T06:32:59.404Z,23
2019-05-06T06:33:49.705Z,23
2019-05-06T06:34:39.779Z,23
2019-05-06T06:35:29.839Z,23
2019-05-06T06:36:19.914Z,23
2019-05-06T06:37:09.982Z,23
2019-05-06T06:38:00.038Z,23
2019-05-06T06:38:52.481Z,23
2019-05-06T06:39:42.098Z,23
2019-05-06T06:40:29.936Z,23
2019-05-06T06:41:20.008Z,23
2019-05-06T06:42:12.435Z,23
2019-05-06T06:43:02.713Z,23
2019-05-06T06:43:52.344Z,23
2019-05-06T06:44:42.283Z,23
2019-05-06T06:45:32.506Z,23
2019-05-06T06:46:21.947Z,23
2019-05-06T06:47:12.404Z,23
2019-05-06T06:48:02.926Z,23
2019-05-06T06:48:53.217Z,23
2019-05-06T06:49:43.353Z,23
2019-05-06T06:50:32.832Z,23
2019-05-06T06:51:23.175Z,23
2019-05-06T06:52:15.623Z,23
2019-05-06T06:53:03.544Z,23
2019-05-06T06:53:53.410Z,22.9
2019-05-06T06:54:44.242Z,23
2019-05-06T06:55:32.890Z,23
2019-05-06T06:56:22.811Z,22.9
2019-05-06T06:57:13.694Z,22.9
2019-05-06T06:58:03.690Z,22.9
2019-05-06T06:58:53.438Z,22.9
2019-05-06T06:59:43.620Z,22.9
2019-05-06T07:00:34.529Z,22.9
2019-05-06T07:01:24.516Z,22.9
2019-05-06T07:02:13.102Z,22.9
2019-05-06T07:04:37.532Z,22.9
2019-05-06T07:05:29.643Z,22.9
2019-05-06T07:06:17.634Z,22.9
2019-05-06T07:07:07.720Z,22.9
2019-05-06T07:07:57.488Z,22.9
2019-05-06T07:08:47.829Z,22.9
2019-05-06T07:09:37.879Z,22.9
2019-05-06T07:10:27.931Z,22.9
2019-05-06T07:11:17.994Z,22.9
2019-05-06T07:12:08.250Z,22.9
2019-05-06T07:12:58.129Z,22.9
2019-05-06T07:13:48.194Z,22.9
2019-05-06T07:14:38.264Z,22.9
2019-05-06T07:15:28.316Z,22.9
2019-05-06T07:16:23.476Z,22.9
2019-05-06T07:17:08.173Z,22.9
2019-05-06T07:17:58.516Z,22.9
2019-05-06T07:18:48.571Z,22.9
2019-05-06T07:19:38.617Z,22.9
2019-05-06T07:20:28.403Z,22.9
2019-05-06T07:21:18.756Z,22.9
2019-05-06T07:22:08.548Z,22.9
2019-05-06T07:22:58.313Z,22.9
2019-05-06T07:23:48.933Z,22.9
2019-05-06T07:24:39.013Z,22.9
2019-05-06T07:25:29.059Z,22.9
2019-05-06T07:26:19.125Z,22.9
2019-05-06T07:27:08.934Z,22.9
2019-05-06T07:27:59.010Z,22.9
2019-05-06T07:28:49.042Z,22.9
2019-05-06T07:29:39.120Z,22.9
2019-05-06T07:30:28.885Z,22.9
2019-05-06T07:31:27.301Z,22.9
2019-05-06T07:32:09.282Z,22.9
2019-05-06T07:33:04.280Z,22.9
2019-05-06T07:33:52.064Z,22.9
2019-05-06T07:34:41.554Z,22.9
2019-05-06T07:35:44.046Z,22.9
2019-05-06T07:36:23.242Z,22.9
2019-05-06T07:37:09.923Z,22.9
2019-05-06T07:37:59.720Z,22.9
2019-05-06T07:38:49.808Z,22.9
2019-05-06T07:39:39.847Z,22.9
2019-05-06T07:40:32.493Z,22.9
2019-05-06T07:41:20.466Z,22.9
2019-05-06T07:42:10.032Z,22.9
2019-05-06T07:43:02.650Z,22.9
2019-05-06T07:43:53.002Z,22.9
2019-05-06T07:44:42.552Z,22.9
2019-05-06T07:45:32.708Z,22.9
2019-05-06T07:46:23.967Z,22.9
2019-05-06T07:47:16.315Z,22.9
2019-05-06T07:48:00.730Z,22.9
2019-05-06T07:48:52.827Z,22.9
2019-05-06T07:49:43.085Z,22.9
2019-05-06T07:50:33.075Z,22.9
2019-05-06T07:51:20.985Z,22.9
2019-05-06T07:52:13.329Z,22.9
2019-05-06T07:53:03.074Z,22.9
2019-05-06T07:53:53.384Z,22.9
2019-05-06T07:54:43.493Z,22.9
2019-05-06T07:55:33.732Z,22.8
2019-05-06T07:56:22.974Z,22.9
2019-05-06T07:57:13.626Z,22.8
2019-05-06T07:58:03.687Z,22.8
2019-05-06T07:58:53.571Z,22.8
2019-05-06T07:59:43.778Z,22.8
2019-05-06T08:00:33.776Z,22.8
2019-05-06T08:01:26.941Z,22.8
2019-05-06T08:02:14.075Z,22.8
2019-05-06T08:03:03.630Z,22.8
2019-05-06T08:03:54.201Z,22.8
2019-05-06T08:04:43.165Z,22.8
2019-05-06T08:05:33.504Z,22.8
2019-05-06T08:06:23.726Z,22.8
2019-05-06T08:07:13.683Z,22.8
2019-05-06T08:08:04.696Z,22.8
2019-05-06T08:08:54.816Z,22.8
2019-05-06T08:09:43.314Z,22.8
2019-05-06T08:10:33.768Z,22.8
2019-05-06T08:11:26.628Z,22.7
2019-05-06T08:12:13.475Z,22.7
2019-05-06T08:13:03.807Z,22.7
2019-05-06T08:13:53.590Z,22.7
2019-05-06T08:14:44.117Z,22.7
2019-05-06T08:15:33.760Z,22.7
2019-05-06T08:16:23.375Z,22.7
2019-05-06T08:17:13.440Z,22.7
2019-05-06T08:18:04.565Z,22.7
2019-05-06T08:18:53.555Z,22.7
2019-05-06T08:19:43.064Z,22.7
2019-05-06T08:20:33.471Z,22.7
2019-05-06T08:21:23.427Z,22.7
2019-05-06T08:22:12.720Z,22.7
2019-05-06T08:23:03.335Z,22.7
2019-05-06T08:23:53.157Z,22.7
2019-05-06T08:24:42.906Z,22.7
2019-05-06T08:25:33.948Z,22.7
2019-05-06T08:26:23.670Z,22.7
2019-05-06T08:27:13.652Z,22.7
2019-05-06T08:28:03.717Z,22.7
2019-05-06T08:28:53.902Z,22.7
2019-05-06T08:29:43.832Z,22.6
2019-05-06T08:30:33.748Z,22.6
2019-05-06T08:31:23.688Z,22.6
2019-05-06T08:32:14.019Z,22.6
2019-05-06T08:33:04.069Z,22.6
2019-05-06T08:33:53.856Z,22.6
2019-05-06T08:34:43.924Z,22.6
2019-05-06T08:35:33.989Z,22.6
2019-05-06T08:36:24.316Z,22.6
2019-05-06T08:37:14.378Z,22.6
2019-05-06T08:38:04.454Z,22.6
2019-05-06T08:38:54.501Z,22.6
2019-05-06T08:39:46.796Z,22.6
2019-05-06T08:40:34.634Z,22.5
2019-05-06T08:41:24.703Z,22.5
2019-05-06T08:42:14.872Z,22.5
2019-05-06T08:43:04.844Z,22.5
2019-05-06T08:43:54.635Z,22.5
2019-05-06T08:44:44.938Z,22.4
2019-05-06T08:45:34.726Z,22.4
2019-05-06T08:46:25.082Z,22.5
2019-05-06T08:47:14.856Z,22.4
2019-05-06T08:48:05.188Z,22.4
2019-05-06T08:48:55.262Z,22.4
2019-05-06T08:49:45.041Z,22.4
2019-05-06T08:50:35.378Z,22.4
2019-05-06T08:51:25.463Z,22.4
2019-05-06T08:52:15.526Z,22.4
2019-05-06T08:53:06.233Z,22.4
2019-05-06T08:53:55.653Z,22.4
2019-05-06T08:54:45.675Z,22.4
2019-05-06T08:55:35.462Z,22.4
2019-05-06T08:56:25.535Z,22.4
2019-05-06T08:57:15.605Z,22.4
2019-05-06T08:58:05.945Z,22.4
2019-05-06T08:58:55.461Z,22.4
2019-05-06T08:59:46.060Z,22.4
2019-05-06T09:00:35.845Z,22.4
2019-05-06T09:01:26.210Z,22.4
2019-05-06T09:02:16.235Z,22.4
2019-05-06T09:03:05.778Z,22.4
2019-05-06T09:04:16.403Z,22.4
2019-05-06T09:05:36.540Z,22.4
2019-05-06T09:06:34.782Z,22.4
2019-05-06T09:07:16.613Z,22.4
2019-05-06T09:08:06.680Z,22.4
2019-05-06T09:08:58.094Z,22.4
2019-05-06T09:09:46.539Z,22.4
2019-05-06T09:10:36.317Z,22.4
2019-05-06T09:11:26.987Z,22.4
2019-05-06T09:12:16.725Z,22.4
2019-05-06T09:13:06.786Z,22.4
2019-05-06T09:13:57.121Z,22.4
2019-05-06T09:14:46.912Z,22.4
2019-05-06T09:15:37.232Z,22.4
2019-05-06T09:16:27.319Z,22.4
2019-05-06T09:17:17.356Z,22.4
2019-05-06T09:18:07.408Z,22.4
2019-05-06T09:18:57.214Z,22.4
2019-05-06T09:19:47.538Z,22.4
2019-05-06T09:20:37.599Z,22.4
2019-05-06T09:21:27.694Z,22.4
2019-05-06T09:22:17.466Z,22.4
2019-05-06T09:23:07.784Z,22.3
2019-05-06T09:23:57.563Z,22.3
2019-05-06T09:24:47.909Z,22.3
2019-05-06T09:25:37.963Z,22.4
2019-05-06T09:26:27.761Z,22.3
2019-05-06T09:27:18.091Z,22.3
2019-05-06T09:28:08.176Z,22.3
2019-05-06T09:28:58.218Z,22.3
2019-05-06T09:29:48.291Z,22.3
2019-05-06T09:30:38.333Z,22.3
2019-05-06T09:31:28.401Z,22.3
2019-05-06T09:32:18.475Z,22.3
2019-05-06T09:33:08.250Z,22.3
2019-05-06T09:33:58.317Z,22.3
2019-05-06T09:34:48.648Z,22.3
2019-05-06T09:35:38.170Z,22.3
2019-05-06T09:36:54.869Z,22.3
2019-05-06T09:38:08.648Z,22.3
2019-05-06T09:38:58.947Z,22.3
2019-05-06T09:39:49.017Z,22.3
2019-05-06T09:40:38.800Z,22.3
2019-05-06T09:41:29.141Z,22.3
2019-05-06T09:42:19.199Z,22.3
2019-05-06T09:43:08.999Z,22.3
2019-05-06T09:43:59.338Z,22.3
2019-05-06T09:44:54.775Z,22.3
2019-05-06T09:45:39.467Z,22.3
2019-05-06T09:46:32.077Z,22.3
2019-05-06T09:47:19.607Z,22.3
2019-05-06T09:48:09.375Z,22.3
2019-05-06T09:48:59.709Z,22.3
2019-05-06T09:49:49.787Z,22.3
2019-05-06T09:50:39.960Z,22.3
2019-05-06T09:51:32.346Z,22.3
2019-05-06T09:52:19.685Z,22.3
2019-05-06T09:53:12.933Z,22.3
2019-05-06T09:54:04.759Z,22.3
2019-05-06T09:54:49.859Z,22.3
2019-05-06T09:55:40.192Z,22.3
2019-05-06T09:56:29.977Z,22.3
2019-05-06T09:57:22.033Z,22.3
2019-05-06T09:58:12.791Z,22.3
2019-05-06T09:59:02.691Z,22.3
2019-05-06T09:59:50.230Z,22.3
2019-05-06T10:00:42.714Z,22.3
2019-05-06T10:01:33.634Z,22.3
2019-05-06T10:02:23.480Z,22.3
2019-05-06T10:03:10.860Z,22.2
2019-05-06T10:05:37.153Z,22.3
2019-05-06T10:06:27.463Z,22.3
2019-05-06T10:07:17.511Z,22.3
2019-05-06T10:08:07.581Z,22.3
2019-05-06T10:08:57.641Z,22.2
2019-05-06T10:09:47.438Z,22.3
2019-05-06T10:10:37.818Z,22.2
2019-05-06T10:11:27.553Z,22.2
2019-05-06T10:12:17.826Z,22.3
2019-05-06T10:13:07.683Z,22.2
2019-05-06T10:13:58.025Z,22.2
2019-05-06T10:14:48.086Z,22.2
2019-05-06T10:15:37.596Z,22.2
2019-05-06T10:16:28.251Z,22.2
2019-05-06T10:17:18.276Z,22.2
2019-05-06T10:18:08.328Z,22.2
2019-05-06T10:18:58.380Z,22.2
2019-05-06T10:19:48.177Z,22.2
2019-05-06T10:20:38.231Z,22.2
2019-05-06T10:21:28.300Z,22.2
2019-05-06T10:22:18.388Z,22.2
2019-05-06T10:23:08.690Z,22.2
2019-05-06T10:23:58.475Z,22.2
2019-05-06T10:24:48.542Z,22.2
2019-05-06T10:25:38.597Z,22.2
2019-05-06T10:26:28.935Z,22.2
2019-05-06T10:27:18.728Z,22.2
2019-05-06T10:28:09.071Z,22.2
2019-05-06T10:28:58.842Z,22.2
2019-05-06T10:29:48.923Z,22.2
2019-05-06T10:30:39.254Z,22.2
2019-05-06T10:31:29.361Z,22.2
2019-05-06T10:32:19.371Z,22.1
2019-05-06T10:33:09.185Z,22.2
2019-05-06T10:33:59.537Z,22.2
2019-05-06T10:34:49.557Z,22.1
2019-05-06T10:35:39.611Z,22.1
2019-05-06T10:36:29.684Z,22.2
2019-05-06T10:37:20.234Z,22.2
2019-05-06T10:38:12.231Z,22.2
2019-05-06T10:39:02.100Z,22.2
2019-05-06T10:39:51.978Z,22.2
2019-05-06T10:41:07.639Z,22.2
2019-05-06T10:42:19.577Z,22.2
2019-05-06T10:43:10.196Z,22.1
2019-05-06T10:43:59.974Z,22.2
2019-05-06T10:44:52.980Z,22.1
2019-05-06T10:45:40.100Z,22.1
2019-05-06T10:46:30.421Z,22.2
2019-05-06T10:47:20.224Z,22.1
2019-05-06T10:48:12.754Z,22.2
2019-05-06T10:49:02.797Z,22.1
2019-05-06T10:49:53.396Z,22.1
2019-05-06T10:50:40.745Z,22.1
2019-05-06T10:51:33.338Z,22.1
2019-05-06T10:52:22.889Z,22.1
2019-05-06T10:53:13.363Z,22.1
2019-05-06T10:54:03.584Z,22.1
2019-05-06T10:54:51.043Z,22.1
2019-05-06T10:55:43.420Z,22.1
2019-05-06T10:56:33.206Z,22.1
2019-05-06T10:58:13.521Z,22.1
2019-05-06T10:59:03.507Z,22.1
2019-05-06T10:59:51.424Z,22.1
2019-05-06T11:00:43.298Z,22.1
2019-05-06T11:01:34.142Z,22.1
2019-05-06T11:02:24.230Z,22.1
2019-05-06T11:03:15.678Z,22.1
2019-05-06T11:04:03.814Z,22.1
2019-05-06T11:04:53.790Z,22.1
2019-05-06T11:05:44.200Z,22.1
2019-05-06T11:06:34.115Z,22.1
2019-05-06T11:07:35.617Z,22.1
2019-05-06T11:08:12.041Z,22.1
2019-05-06T11:09:04.273Z,22.1
2019-05-06T11:09:54.077Z,22.1
2019-05-06T11:10:46.433Z,22.1
2019-05-06T11:11:39.240Z,22.1
2019-05-06T11:12:22.659Z,22.1
2019-05-06T11:13:13.597Z,22.1
2019-05-06T11:14:03.902Z,22.1
2019-05-06T11:14:56.691Z,22.1
2019-05-06T11:15:44.542Z,22.1
2019-05-06T11:16:34.107Z,22.1
2019-05-06T11:17:24.397Z,22.1
2019-05-06T11:18:14.724Z,22.1
2019-05-06T11:19:05.847Z,22.1
2019-05-06T11:19:54.344Z,22.1
2019-05-06T11:20:45.054Z,22.1
2019-05-06T11:21:33.860Z,22.1
2019-05-06T11:23:15.349Z,22.1
2019-05-06T11:24:07.135Z,22.1
2019-05-06T11:24:53.287Z,22.1
2019-05-06T11:25:44.377Z,22.1
2019-05-06T11:26:33.411Z,22.1
2019-05-06T11:27:37.102Z,22.1
2019-05-06T11:29:05.983Z,22.1
2019-05-06T11:29:54.162Z,22.1
2019-05-06T11:30:43.453Z,22.1
2019-05-06T11:31:34.199Z,22.1
2019-05-06T11:32:24.802Z,22.1
2019-05-06T11:33:14.091Z,22.1
2019-05-06T11:34:04.206Z,22.1
2019-05-06T11:36:34.134Z,22.1
2019-05-06T11:37:24.151Z,22.1
2019-05-06T11:38:13.988Z,22.1
2019-05-06T11:39:04.326Z,22
2019-05-06T11:39:54.106Z,22
2019-05-06T11:41:34.523Z,22.1
2019-05-06T11:42:36.158Z,22
2019-05-06T11:43:14.647Z,22
2019-05-06T11:44:04.716Z,22
2019-05-06T11:44:54.775Z,22
2019-05-06T11:45:44.825Z,22
2019-05-06T11:46:34.608Z,22
2019-05-06T11:47:25.193Z,22
2019-05-06T11:48:15.686Z,22
2019-05-06T11:49:04.520Z,22
2019-05-06T11:49:57.151Z,22
2019-05-06T11:50:45.195Z,22
2019-05-06T11:51:35.263Z,22
2019-05-06T11:52:25.356Z,22
2019-05-06T11:53:15.637Z,22
2019-05-06T11:54:24.316Z,21.9
2019-05-06T11:55:45.320Z,22
2019-05-06T11:56:58.328Z,21.9
2019-05-06T11:58:15.757Z,21.9
2019-05-06T11:59:05.820Z,21.9
2019-05-06T11:59:55.342Z,21.9
2019-05-06T12:00:45.964Z,21.9
2019-05-06T12:01:36.019Z,21.9
2019-05-06T12:02:26.078Z,21.9
2019-05-06T12:03:16.146Z,21.9
2019-05-06T12:05:37.039Z,21.9
2019-05-06T12:06:27.109Z,21.9
2019-05-06T12:07:17.510Z,21.9
2019-05-06T12:08:09.326Z,21.9
2019-05-06T12:08:57.554Z,21.9
2019-05-06T12:09:47.364Z,21.9
2019-05-06T12:10:37.404Z,21.9
2019-05-06T12:11:27.473Z,21.9
2019-05-06T12:12:17.799Z,21.9
2019-05-06T12:13:07.902Z,21.9
2019-05-06T12:13:57.934Z,21.9
2019-05-06T12:14:47.982Z,21.9
2019-05-06T12:15:37.496Z,21.9
2019-05-06T12:16:27.875Z,21.9
2019-05-06T12:17:17.927Z,21.9
2019-05-06T12:18:08.231Z,21.9
2019-05-06T12:19:03.339Z,21.9
2019-05-06T12:19:48.362Z,21.9
2019-05-06T12:20:38.416Z,21.9
2019-05-06T12:21:28.203Z,21.9
2019-05-06T12:22:18.538Z,21.9
2019-05-06T12:23:08.353Z,21.8
2019-05-06T12:23:58.668Z,21.9
2019-05-06T12:24:48.735Z,21.8
2019-05-06T12:25:38.788Z,21.8
2019-05-06T12:26:28.848Z,21.8
2019-05-06T12:27:18.931Z,21.8
2019-05-06T12:28:08.989Z,21.8
2019-05-06T12:28:58.760Z,21.8
2019-05-06T12:29:48.845Z,21.8
2019-05-06T12:30:39.173Z,21.8
2019-05-06T12:31:29.229Z,21.8
2019-05-06T12:32:19.322Z,21.8
2019-05-06T12:33:09.373Z,21.8
2019-05-06T12:33:58.865Z,21.8
2019-05-06T12:34:49.470Z,21.8
2019-05-06T12:35:39.532Z,21.8
2019-05-06T12:36:29.598Z,21.8
2019-05-06T12:37:19.390Z,21.8
2019-05-06T12:38:31.390Z,21.8
2019-05-06T12:39:49.868Z,21.8
2019-05-06T12:40:39.644Z,21.8
2019-05-06T12:41:30.004Z,21.8
2019-05-06T12:42:20.035Z,21.8
2019-05-06T12:43:09.842Z,21.8
2019-05-06T12:44:00.148Z,21.8
2019-05-06T12:44:49.947Z,21.8
2019-05-06T12:45:42.728Z,21.8
2019-05-06T12:46:30.345Z,21.8
2019-05-06T12:47:20.415Z,21.8
2019-05-06T12:48:13.272Z,21.8
2019-05-06T12:49:02.971Z,21.8
2019-05-06T12:49:53.119Z,21.8
2019-05-06T12:50:42.832Z,21.8
2019-05-06T12:51:32.979Z,21.8
2019-05-06T12:52:23.637Z,21.8
2019-05-06T12:53:13.153Z,21.8
2019-05-06T12:54:03.279Z,21.8
2019-05-06T12:55:13.121Z,21.8
2019-05-06T12:56:31.098Z,21.8
2019-05-06T12:57:24.309Z,21.8
2019-05-06T12:58:14.252Z,21.8
2019-05-06T12:59:02.933Z,21.8
2019-05-06T12:59:53.299Z,21.8
2019-05-06T13:00:41.394Z,21.8
2019-05-06T13:01:34.877Z,21.7
2019-05-06T13:02:24.216Z,21.8
2019-05-06T13:03:13.649Z,21.7
2019-05-06T13:04:05.534Z,21.7
2019-05-06T13:05:04.309Z,21.8
2019-05-06T13:05:43.783Z,21.8
2019-05-06T13:06:34.093Z,21.7
2019-05-06T13:07:21.901Z,21.7
2019-05-06T13:08:28.533Z,21.8
2019-05-06T13:10:03.873Z,21.8
2019-05-06T13:10:53.649Z,21.7
2019-05-06T13:11:44.215Z,21.8
2019-05-06T13:12:34.737Z,21.7
2019-05-06T13:13:23.569Z,21.7
2019-05-06T13:14:13.509Z,21.7
2019-05-06T13:15:08.747Z,21.7
2019-05-06T13:15:53.989Z,21.7
2019-05-06T13:16:43.390Z,21.7
2019-05-06T13:17:33.975Z,21.7
2019-05-06T13:18:24.265Z,21.7
2019-05-06T13:19:16.614Z,21.7
2019-05-06T13:20:04.030Z,21.7
2019-05-06T13:20:54.345Z,21.7
2019-05-06T13:21:43.647Z,21.7
2019-05-06T13:22:35.058Z,21.7
2019-05-06T13:23:26.912Z,21.7
2019-05-06T13:24:13.825Z,21.7
2019-05-06T13:25:04.825Z,21.7
2019-05-06T13:25:53.955Z,21.7
2019-05-06T13:26:43.947Z,21.7
2019-05-06T13:27:34.065Z,21.7
2019-05-06T13:28:23.849Z,21.7
2019-05-06T13:29:14.193Z,21.7
2019-05-06T13:30:04.250Z,21.7
2019-05-06T13:30:54.357Z,21.7
2019-05-06T13:32:33.897Z,21.7
2019-05-06T13:33:24.877Z,21.7
2019-05-06T13:34:15.118Z,21.7
2019-05-06T13:35:04.367Z,21.7
2019-05-06T13:35:54.691Z,21.7
2019-05-06T13:36:44.632Z,21.7
2019-05-06T13:37:34.535Z,21.7
2019-05-06T13:38:24.871Z,21.7
2019-05-06T13:39:16.081Z,21.7
2019-05-06T13:40:05.125Z,21.6
2019-05-06T13:40:58.550Z,21.6
2019-05-06T13:41:45.119Z,21.6
2019-05-06T13:42:34.666Z,21.6
2019-05-06T13:43:25.259Z,21.6
2019-05-06T13:44:15.331Z,21.6
2019-05-06T13:45:05.361Z,21.5
2019-05-06T13:45:55.428Z,21.5
2019-05-06T13:46:45.497Z,21.5
2019-05-06T13:47:35.278Z,21.5
2019-05-06T13:48:25.611Z,21.5
2019-05-06T13:49:15.394Z,21.5
2019-05-06T13:50:05.728Z,21.5
2019-05-06T13:50:55.794Z,21.5
2019-05-06T13:51:45.587Z,21.4
2019-05-06T13:52:35.934Z,21.4
2019-05-06T13:53:46.453Z,21.4
2019-05-06T13:54:17.167Z,21.4
2019-05-06T13:55:06.145Z,21.3
2019-05-06T13:55:56.174Z,21.3
2019-05-06T13:56:51.885Z,21.3
2019-05-06T13:57:39.781Z,21.3
2019-05-06T13:58:26.355Z,21.2
2019-05-06T13:59:16.414Z,21.2
2019-05-06T14:00:56.288Z,21.1
2019-05-06T14:01:46.613Z,21.1
2019-05-06T14:02:36.410Z,21.1
2019-05-06T14:03:26.728Z,21.1
2019-05-06T14:04:16.515Z,21.1
2019-05-06T14:06:37.265Z,21.1
2019-05-06T14:07:27.305Z,21.1
2019-05-06T14:08:16.807Z,21.1
2019-05-06T14:09:07.140Z,21
2019-05-06T14:09:57.487Z,21
2019-05-06T14:11:02.761Z,21
2019-05-06T14:11:37.600Z,20.9
2019-05-06T14:12:27.679Z,20.9
2019-05-06T14:13:17.725Z,20.9
2019-05-06T14:14:07.522Z,21
2019-05-06T14:14:57.852Z,21
2019-05-06T14:15:47.637Z,20.9
2019-05-06T14:16:37.978Z,21
2019-05-06T14:17:28.037Z,20.9
2019-05-06T14:18:18.091Z,21
2019-05-06T14:19:07.897Z,21
2019-05-06T14:19:58.217Z,21.1
2019-05-06T14:20:48.274Z,21.1
2019-05-06T14:21:38.361Z,21.1
2019-05-06T14:28:18.841Z,21.2
2019-05-06T14:29:58.974Z,21.2
2019-05-06T14:30:49.032Z,21.2
2019-05-06T14:32:29.144Z,21.2
2019-05-06T14:33:19.210Z,21.2
2019-05-06T14:34:09.006Z,21.2
2019-05-06T14:34:59.334Z,21.2
2019-05-06T14:35:49.398Z,21.2
2019-05-06T14:36:39.191Z,21.2
2019-05-06T14:37:29.521Z,21.2
2019-05-06T14:38:19.633Z,21.2
2019-05-06T14:39:09.396Z,21.2
2019-05-06T14:40:00.698Z,21.2
2019-05-06T14:41:39.836Z,21.1
2019-05-06T14:42:29.898Z,21.1
2019-05-06T14:43:19.427Z,21.1
2019-05-06T14:44:12.682Z,21
2019-05-06T14:45:00.080Z,21
2019-05-06T14:45:49.875Z,20.9
2019-05-06T14:46:43.028Z,20.9
2019-05-06T14:47:32.496Z,20.8
2019-05-06T14:48:22.377Z,20.8
2019-05-06T14:49:10.377Z,20.8
2019-05-06T14:50:00.443Z,20.8
2019-05-06T14:50:57.932Z,20.8
2019-05-06T14:51:42.583Z,20.8
2019-05-06T14:52:33.028Z,20.8
2019-05-06T14:53:23.642Z,20.8
2019-05-06T14:54:14.390Z,20.8
2019-05-06T14:55:00.857Z,20.7